METAR AND TAF INFORMATION
METAR FOR ETNG
ADDS - METARS form results

(1939 UTC 17 February 2019)
Data provider http://aviationweather.gov/metar/data/
 
METAR text: ETNG 171850Z 18003KT CAVOK 13/00 Q1019
Conditions at: ETNG (GEILENKIRCHEN(NA, DE) observed 1850 UTC 17 February 2019
Temperature: 13.0°C (55°F)
Dewpoint: 0.0°C (32°F) [RH = 41%]
Pressure (altimeter): 30.09 inches Hg (1019.0 mb)
Winds: from the S (180 degrees) at 3 MPH (3 knots; 1.5 m/s)
Visibility: 6 or more miles (10+ km)
Ceiling: ceiling and visibility are OK
Clouds: unknown
Weather: no significant weather observed at this time

 AIRPORT MAP

 RUNWAY INFORMATION
Runway 09 Runway length 10009 ft Runway width 147 ft
Runway elevation 262 ft Runway displaced threshold 491 ft Runway heading 91
Runway 27 Runway length 10009 ft Runway width 147 ft
Runway elevation 289 ft Runway displaced threshold 491 ft Runway heading 271

 AIRPORT FREQUENCIES
Type ATIS Name ATIS Frequency 27.82 MHZ
Type POST Name MAGIC COMD Frequency 139.875 MHZ
Type RDR Name FRISBEE RA Frequency 38.54 MHZ
Type RDR Name FRISBEE RA Frequency 123.3 MHZ
Type RDR Name LANGEN CON Frequency 128.5 MHZ
Type TWR Name FRISBEE TW Frequency 122.1 MHZ

 AIRPORT NEAR NAVIGATION AIDS
Type TACAN Name Geilenkirchen Frequency 108100 KHZ